Time;durP1;ratioP1;P1;durP2;ratioP2;P2;SDS_P1;SDS_P2;PMS_P1;PMS_P2;Temp;Humidity;BMP_temperature;BMP_pressure;BME280_temperature;BME280_humidity;BME280_pressure;Samples;Min_cycle;Max_cycle;Signal;HPM_P1;HPM_P2
2020/12/15 00:00:09;;;;;;;7.90;5.78;;;9.70;99.90;;;;;;5091058;28;20030;-68
2020/12/15 00:02:34;;;;;;;7.75;6.00;;;9.70;99.90;;;;;;5077960;28;20040;-68
2020/12/15 00:05:00;;;;;;;9.23;5.55;;;9.70;99.90;;;;;;5078436;28;20532;-68
2020/12/15 00:07:26;;;;;;;10.32;5.78;;;9.70;99.90;;;;;;5090745;28;20016;-68
2020/12/15 00:09:52;;;;;;;9.60;5.70;;;9.70;99.90;;;;;;5091627;28;20367;-69
2020/12/15 00:12:17;;;;;;;7.63;5.78;;;9.70;99.90;;;;;;5091328;28;20019;-68
2020/12/15 00:14:43;;;;;;;12.75;5.90;;;9.80;99.90;;;;;;5090999;28;20871;-68
2020/12/15 00:17:08;;;;;;;11.27;5.78;;;9.80;99.90;;;;;;5091467;28;20039;-68
2020/12/15 00:19:34;;;;;;;9.10;6.50;;;9.70;99.90;;;;;;5091007;28;20024;-68
2020/12/15 00:21:59;;;;;;;10.85;6.80;;;9.80;99.90;;;;;;5090671;28;20306;-68
2020/12/15 00:24:25;;;;;;;10.98;6.95;;;9.70;99.90;;;;;;5091043;28;20492;-68
2020/12/15 00:26:50;;;;;;;19.90;6.55;;;9.70;99.90;;;;;;5091239;28;20443;-68
2020/12/15 00:29:16;;;;;;;9.23;6.72;;;9.80;99.90;;;;;;5090645;28;20031;-68
2020/12/15 00:31:43;;;;;;;13.05;8.23;;;9.70;99.90;;;;;;5091244;28;20408;-68
2020/12/15 00:34:09;;;;;;;6.93;5.85;;;9.70;99.90;;;;;;5091471;28;20019;-68
2020/12/15 00:36:34;;;;;;;11.88;6.68;;;9.70;99.90;;;;;;5090612;28;20391;-68
2020/12/15 00:39:00;;;;;;;9.30;6.95;;;9.70;99.90;;;;;;5091148;28;20117;-69
2020/12/15 00:41:27;;;;;;;8.75;6.82;;;9.70;99.90;;;;;;5091096;28;20056;-69
2020/12/15 00:43:52;;;;;;;10.48;6.32;;;9.70;99.90;;;;;;5090638;28;20109;-68
2020/12/15 00:46:18;;;;;;;6.68;6.05;;;9.60;99.90;;;;;;5091122;28;20020;-69
2020/12/15 00:48:43;;;;;;;12.88;7.05;;;9.70;99.90;;;;;;5091542;28;20032;-68
2020/12/15 00:51:20;;;;;;;7.80;5.95;;;9.60;99.90;;;;;;5076871;28;20031;-68
2020/12/15 00:53:46;;;;;;;8.20;6.47;;;9.60;99.90;;;;;;5071597;28;20468;-69
2020/12/15 00:56:13;;;;;;;8.05;6.65;;;9.60;99.90;;;;;;5087722;28;20020;-68
2020/12/15 00:58:39;;;;;;;7.53;6.82;;;9.50;99.90;;;;;;5088271;28;20104;-68
2020/12/15 01:01:06;;;;;;;7.97;6.65;;;9.50;99.90;;;;;;5083005;28;20434;-68
2020/12/15 01:03:32;;;;;;;6.88;6.13;;;9.50;99.90;;;;;;5089737;28;20519;-69
2020/12/15 01:05:58;;;;;;;9.30;6.78;;;9.50;99.90;;;;;;5090914;28;20417;-68
2020/12/15 01:08:23;;;;;;;8.95;6.43;;;9.50;99.90;;;;;;5090471;28;20035;-68
2020/12/15 01:10:50;;;;;;;7.95;6.57;;;9.50;99.90;;;;;;5090488;28;20024;-68
2020/12/15 01:13:16;;;;;;;6.95;6.25;;;9.50;99.90;;;;;;5089020;28;20028;-68
2020/12/15 01:15:41;;;;;;;7.13;6.47;;;9.50;99.90;;;;;;5092277;28;20468;-68
2020/12/15 01:18:07;;;;;;;8.02;6.72;;;9.50;99.90;;;;;;5094397;28;20028;-68
2020/12/15 01:20:32;;;;;;;9.93;6.28;;;9.50;99.90;;;;;;5094631;28;20019;-68
2020/12/15 01:22:58;;;;;;;7.93;6.45;;;9.50;99.90;;;;;;5095225;28;20464;-68
2020/12/15 01:25:23;;;;;;;8.43;6.35;;;9.50;99.90;;;;;;5093718;28;20467;-68
2020/12/15 01:27:49;;;;;;;7.90;5.97;;;9.50;99.90;;;;;;5094849;28;20066;-68
2020/12/15 01:30:14;;;;;;;7.47;5.75;;;9.50;99.90;;;;;;5094631;28;20059;-68
2020/12/15 01:32:40;;;;;;;6.93;6.07;;;9.50;99.90;;;;;;5065805;28;20127;-68
2020/12/15 01:35:06;;;;;;;6.20;5.65;;;9.50;99.90;;;;;;5094742;28;20035;-70
2020/12/15 01:37:31;;;;;;;7.32;5.57;;;9.50;99.90;;;;;;5094836;28;20021;-68
2020/12/15 01:39:57;;;;;;;11.25;5.95;;;9.50;99.90;;;;;;5094292;28;20444;-68
2020/12/15 01:42:22;;;;;;;6.97;5.78;;;9.40;99.90;;;;;;5094555;28;20022;-69
2020/12/15 01:44:48;;;;;;;8.15;6.45;;;9.50;99.90;;;;;;5094953;28;20418;-69
2020/12/15 01:47:15;;;;;;;7.07;6.20;;;9.50;99.90;;;;;;5094385;28;20024;-68
2020/12/15 01:49:42;;;;;;;9.95;6.35;;;9.50;99.90;;;;;;5095955;28;20028;-68
2020/12/15 01:52:07;;;;;;;6.57;5.93;;;9.50;99.90;;;;;;5087583;28;20175;-68
2020/12/15 01:54:33;;;;;;;8.57;6.43;;;9.50;99.90;;;;;;5089294;28;20219;-67
2020/12/15 01:56:59;;;;;;;8.18;6.32;;;9.50;99.90;;;;;;5094729;28;20456;-68
2020/12/15 01:59:27;;;;;;;10.05;6.45;;;9.50;99.90;;;;;;5094146;28;20032;-68
2020/12/15 02:01:52;;;;;;;9.93;6.80;;;9.50;99.90;;;;;;5093183;28;20024;-69
2020/12/15 02:04:18;;;;;;;7.28;6.57;;;9.60;99.90;;;;;;5092954;28;20543;-69
2020/12/15 02:06:47;;;;;;;11.48;7.05;;;9.60;99.90;;;;;;5092693;28;20036;-68
2020/12/15 02:09:17;;;;;;;9.75;7.93;;;9.60;99.90;;;;;;5093632;28;20027;-67
2020/12/15 02:11:44;;;;;;;9.80;7.43;;;9.60;99.90;;;;;;5093960;28;20035;-67
2020/12/15 02:14:11;;;;;;;8.73;7.38;;;9.60;99.90;;;;;;5093461;28;20320;-68
2020/12/15 02:16:40;;;;;;;9.93;6.75;;;9.50;99.90;;;;;;5093808;28;20020;-68
2020/12/15 02:19:14;;;;;;;13.07;7.95;;;9.60;99.90;;;;;;5093844;28;20446;-68
2020/12/15 02:21:57;;;;;;;11.68;7.55;;;9.50;99.90;;;;;;5093219;28;20059;-68
2020/12/15 02:24:23;;;;;;;11.77;7.65;;;9.60;99.90;;;;;;5068822;28;20052;-69
2020/12/15 02:26:49;;;;;;;11.82;7.72;;;9.50;99.90;;;;;;5093765;28;20020;-68
2020/12/15 02:29:15;;;;;;;11.27;6.95;;;9.50;99.90;;;;;;5092490;28;20024;-68
2020/12/15 02:31:40;;;;;;;19.63;7.22;;;9.50;99.90;;;;;;5093480;28;20030;-67
2020/12/15 02:34:06;;;;;;;7.28;6.45;;;9.50;99.90;;;;;;5093848;28;20103;-69
2020/12/15 02:36:32;;;;;;;11.55;6.85;;;9.50;99.90;;;;;;5092784;28;20024;-68
2020/12/15 02:39:10;;;;;;;6.90;6.25;;;9.50;99.90;;;;;;5093518;28;20479;-68
2020/12/15 02:41:36;;;;;;;10.23;6.97;;;9.50;99.90;;;;;;5093145;28;20476;-68
2020/12/15 02:44:05;;;;;;;9.48;6.60;;;9.50;99.90;;;;;;5092452;28;20036;-68
2020/12/15 02:46:30;;;;;;;10.00;6.63;;;9.50;99.90;;;;;;5093185;28;20032;-67
2020/12/15 02:48:56;;;;;;;9.23;6.28;;;9.60;99.90;;;;;;5092851;28;20028;-68
2020/12/15 02:51:23;;;;;;;7.15;6.35;;;9.60;99.90;;;;;;5090773;28;20020;-68
2020/12/15 02:53:49;;;;;;;5.95;5.38;;;9.60;99.90;;;;;;5081214;28;20036;-68
2020/12/15 02:56:19;;;;;;;7.50;6.25;;;9.60;99.90;;;;;;5092092;28;20028;-68
2020/12/15 02:58:45;;;;;;;9.77;6.65;;;9.60;99.90;;;;;;5093472;28;20084;-68
2020/12/15 03:01:10;;;;;;;6.88;5.85;;;9.70;99.90;;;;;;5093342;28;20123;-68
2020/12/15 03:03:36;;;;;;;11.73;6.63;;;9.60;99.90;;;;;;5091939;28;20098;-68
2020/12/15 03:06:01;;;;;;;8.57;6.57;;;9.60;99.90;;;;;;5093046;28;20016;-68
2020/12/15 03:08:27;;;;;;;7.63;6.43;;;9.60;99.90;;;;;;5092593;28;20024;-68
2020/12/15 03:10:52;;;;;;;7.53;6.13;;;9.60;99.90;;;;;;5092030;28;20026;-68
2020/12/15 03:13:18;;;;;;;6.57;5.97;;;9.70;99.90;;;;;;5092385;28;20039;-68
2020/12/15 03:15:43;;;;;;;8.18;6.55;;;9.60;99.90;;;;;;5092893;28;20027;-68
2020/12/15 03:18:09;;;;;;;6.57;5.88;;;9.60;99.90;;;;;;5091926;28;20070;-68
2020/12/15 03:20:34;;;;;;;8.65;6.97;;;9.70;99.90;;;;;;5092353;28;20022;-68
2020/12/15 03:23:00;;;;;;;7.68;6.57;;;9.70;99.90;;;;;;5083578;28;20024;-67
2020/12/15 03:25:26;;;;;;;8.13;7.10;;;9.70;99.90;;;;;;5071120;28;20029;-68
2020/12/15 03:27:52;;;;;;;7.45;6.50;;;9.70;99.90;;;;;;5072078;28;20464;-68
2020/12/15 03:30:18;;;;;;;9.50;6.70;;;9.70;99.90;;;;;;5072208;28;20028;-69
2020/12/15 03:32:44;;;;;;;11.00;7.20;;;9.70;99.90;;;;;;5071506;28;20110;-68
2020/12/15 03:35:09;;;;;;;8.63;7.13;;;9.70;99.90;;;;;;5071891;28;20055;-69
2020/12/15 03:37:35;;;;;;;7.72;6.97;;;9.70;99.90;;;;;;5071694;28;20023;-69
2020/12/15 03:40:00;;;;;;;8.73;7.28;;;9.70;99.90;;;;;;5070818;28;20035;-69
2020/12/15 03:42:26;;;;;;;11.13;7.68;;;9.70;99.90;;;;;;5071456;28;20024;-69
2020/12/15 03:44:52;;;;;;;9.95;7.07;;;9.70;99.90;;;;;;5072026;28;20035;-69
2020/12/15 03:47:17;;;;;;;13.27;7.50;;;9.70;99.90;;;;;;5070958;28;20017;-69
2020/12/15 03:49:43;;;;;;;7.75;6.85;;;9.70;99.90;;;;;;5071832;28;20024;-69
2020/12/15 03:52:08;;;;;;;9.38;7.43;;;9.70;99.90;;;;;;5071749;28;20108;-69
2020/12/15 03:54:34;;;;;;;7.78;6.97;;;9.70;99.90;;;;;;5070748;28;20078;-70
2020/12/15 03:56:59;;;;;;;9.32;7.55;;;9.60;99.90;;;;;;5071469;28;20126;-69
2020/12/15 03:59:25;;;;;;;9.77;7.68;;;9.60;99.90;;;;;;5070674;28;20115;-69
2020/12/15 04:01:50;;;;;;;8.02;7.22;;;9.60;99.90;;;;;;5071505;28;20093;-69
2020/12/15 04:04:16;;;;;;;8.73;6.93;;;9.50;99.90;;;;;;5070482;28;20035;-69
2020/12/15 04:06:41;;;;;;;8.40;7.35;;;9.60;99.90;;;;;;5070289;28;20024;-69
2020/12/15 04:09:07;;;;;;;10.60;8.07;;;9.50;99.90;;;;;;5071279;28;20017;-69
2020/12/15 04:11:33;;;;;;;9.55;8.15;;;9.50;99.90;;;;;;5071118;28;20020;-69
2020/12/15 04:13:58;;;;;;;9.05;7.50;;;9.50;99.90;;;;;;5070830;28;20111;-69
2020/12/15 04:16:24;;;;;;;10.93;8.77;;;9.50;99.90;;;;;;5070956;28;20602;-69
2020/12/15 04:18:50;;;;;;;8.57;7.68;;;9.40;99.90;;;;;;5071428;28;20035;-69
2020/12/15 04:21:15;;;;;;;7.97;7.18;;;9.40;99.90;;;;;;5070043;28;20017;-69
2020/12/15 04:23:41;;;;;;;11.68;7.18;;;9.40;99.90;;;;;;5071163;28;20362;-69
2020/12/15 04:26:07;;;;;;;10.38;7.38;;;9.40;99.90;;;;;;5070949;28;20039;-69
2020/12/15 04:28:32;;;;;;;7.70;6.90;;;9.40;99.90;;;;;;5070517;28;20032;-69
2020/12/15 04:30:58;;;;;;;10.45;6.45;;;9.40;99.90;;;;;;5071157;28;20520;-69
2020/12/15 04:33:23;;;;;;;11.82;8.23;;;9.40;99.90;;;;;;5070452;28;20060;-69
2020/12/15 04:35:49;;;;;;;11.40;6.85;;;9.40;99.90;;;;;;5070404;28;20048;-69
2020/12/15 04:38:14;;;;;;;8.30;7.50;;;9.40;99.90;;;;;;5070671;28;20092;-69
2020/12/15 04:40:40;;;;;;;7.78;6.72;;;9.30;99.90;;;;;;5070937;28;20385;-69
2020/12/15 04:43:08;;;;;;;8.90;7.00;;;9.40;99.90;;;;;;5070205;28;20199;-69
2020/12/15 04:45:35;;;;;;;9.85;7.03;;;9.30;99.90;;;;;;5072590;28;20028;-69
2020/12/15 04:48:09;;;;;;;8.05;6.97;;;9.30;99.90;;;;;;5072484;28;20037;-69
2020/12/15 04:50:36;;;;;;;10.43;7.45;;;9.30;99.90;;;;;;5069396;28;20029;-69
2020/12/15 04:53:10;;;;;;;7.45;6.75;;;9.30;99.90;;;;;;5070757;28;20115;-69
2020/12/15 04:55:36;;;;;;;8.30;7.28;;;9.30;99.90;;;;;;5070132;28;20435;-69
2020/12/15 04:58:03;;;;;;;10.20;7.35;;;9.40;99.90;;;;;;5071197;28;20052;-69
2020/12/15 05:00:29;;;;;;;8.48;7.68;;;9.30;99.90;;;;;;5070717;28;20059;-69
2020/12/15 05:02:55;;;;;;;8.05;7.18;;;9.30;99.90;;;;;;5070213;28;20032;-69
2020/12/15 05:05:22;;;;;;;8.40;7.38;;;9.30;99.90;;;;;;5070388;28;20052;-70
2020/12/15 05:07:48;;;;;;;9.13;7.30;;;9.30;99.90;;;;;;5070688;28;20025;-69
2020/12/15 05:10:17;;;;;;;9.75;7.28;;;9.30;99.90;;;;;;5069683;28;20342;-69
2020/12/15 05:12:44;;;;;;;9.57;7.50;;;9.30;99.90;;;;;;5070550;28;20373;-69
2020/12/15 05:15:11;;;;;;;8.32;7.50;;;9.30;99.90;;;;;;5070842;28;20032;-69
2020/12/15 05:17:37;;;;;;;14.13;8.05;;;9.30;99.90;;;;;;5069424;28;20056;-69
2020/12/15 05:20:06;;;;;;;8.60;7.75;;;9.30;99.90;;;;;;5070636;28;20056;-69
2020/12/15 05:22:43;;;;;;;8.63;7.20;;;9.20;99.90;;;;;;5070342;28;20033;-69
2020/12/15 05:25:20;;;;;;;8.50;7.60;;;9.30;99.90;;;;;;5070198;28;20111;-69
2020/12/15 05:27:45;;;;;;;8.07;7.28;;;9.20;99.90;;;;;;5070652;28;20028;-69
2020/12/15 05:30:11;;;;;;;11.68;7.85;;;9.30;99.90;;;;;;5070774;28;20062;-69
2020/12/15 05:32:54;;;;;;;8.43;7.57;;;9.20;99.90;;;;;;5069304;28;20135;-69
2020/12/15 05:35:29;;;;;;;9.80;7.35;;;9.20;99.90;;;;;;5070446;28;20111;-69
2020/12/15 05:38:00;;;;;;;10.38;7.35;;;9.30;99.90;;;;;;5069831;28;20044;-69
2020/12/15 05:40:26;;;;;;;9.68;7.88;;;9.30;99.90;;;;;;5070521;28;20024;-69
2020/12/15 05:42:56;;;;;;;10.65;7.93;;;9.20;99.90;;;;;;5070168;28;20032;-69
2020/12/15 05:45:22;;;;;;;9.15;7.20;;;9.30;99.90;;;;;;5069327;28;20044;-69
2020/12/15 05:47:49;;;;;;;12.07;8.05;;;9.20;99.90;;;;;;5070576;28;20408;-69
2020/12/15 05:50:20;;;;;;;15.65;8.63;;;9.30;99.90;;;;;;5069812;28;20380;-69
2020/12/15 05:52:59;;;;;;;10.95;7.32;;;9.30;99.90;;;;;;5069625;28;20502;-69
2020/12/15 05:55:25;;;;;;;10.07;7.70;;;9.30;99.90;;;;;;5069771;28;20381;-69
2020/12/15 05:57:52;;;;;;;10.27;7.32;;;9.30;99.90;;;;;;5070321;28;20031;-69
2020/12/15 06:00:18;;;;;;;13.35;7.57;;;9.30;99.90;;;;;;5069348;28;20413;-68
2020/12/15 06:02:44;;;;;;;10.82;6.93;;;9.40;99.90;;;;;;5073048;28;20031;-68
2020/12/15 06:05:10;;;;;;;10.75;7.57;;;9.40;99.90;;;;;;5073838;28;20037;-68
2020/12/15 06:07:36;;;;;;;8.15;6.68;;;9.40;99.90;;;;;;5072820;28;20021;-68
2020/12/15 06:10:04;;;;;;;8.38;7.50;;;9.40;99.90;;;;;;5073828;28;20029;-68
2020/12/15 06:12:30;;;;;;;9.23;6.90;;;9.40;99.90;;;;;;5073359;28;20036;-68
2020/12/15 06:14:55;;;;;;;8.65;7.68;;;9.40;99.90;;;;;;5072855;28;20037;-68
2020/12/15 06:17:22;;;;;;;12.48;7.38;;;9.40;99.90;;;;;;5089518;28;20332;-68
2020/12/15 06:19:52;;;;;;;6.97;6.28;;;9.40;99.90;;;;;;5090502;28;20024;-69
2020/12/15 06:22:22;;;;;;;11.18;8.10;;;9.40;99.90;;;;;;5089001;28;20031;-69
2020/12/15 06:24:55;;;;;;;12.20;8.00;;;9.40;99.90;;;;;;5092037;28;20032;-68
2020/12/15 06:27:29;;;;;;;7.53;6.72;;;9.40;99.90;;;;;;5090867;28;20028;-69
2020/12/15 06:29:55;;;;;;;8.82;6.07;;;9.40;99.90;;;;;;5093260;28;20031;-68
2020/12/15 06:32:20;;;;;;;8.85;7.72;;;9.40;99.90;;;;;;5087874;28;20048;-68
2020/12/15 06:34:48;;;;;;;10.48;7.25;;;9.40;99.90;;;;;;5088384;28;20031;-69
2020/12/15 06:37:15;;;;;;;10.32;7.25;;;9.40;99.90;;;;;;5088424;28;20078;-69
2020/12/15 06:39:56;;;;;;;8.30;7.28;;;9.40;99.90;;;;;;5089259;28;20024;-68
2020/12/15 06:42:22;;;;;;;13.15;8.25;;;9.40;99.90;;;;;;5089984;28;20038;-68
2020/12/15 06:45:08;;;;;;;11.48;7.85;;;9.40;99.90;;;;;;5088426;28;20391;-68
2020/12/15 06:47:37;;;;;;;14.15;7.28;;;9.50;99.90;;;;;;5089489;28;20028;-68
2020/12/15 06:50:18;;;;;;;14.88;7.47;;;9.50;99.90;;;;;;5085941;28;20422;-67
2020/12/15 06:52:45;;;;;;;10.32;7.65;;;9.40;99.90;;;;;;5087609;28;20076;-68
2020/12/15 06:55:11;;;;;;;11.18;7.32;;;9.40;99.90;;;;;;5088426;28;20020;-68
2020/12/15 06:57:39;;;;;;;12.13;7.55;;;9.40;99.90;;;;;;5090920;28;20378;-68
2020/12/15 07:00:11;;;;;;;9.63;7.75;;;9.50;99.90;;;;;;5090167;28;20476;-68
2020/12/15 07:02:38;;;;;;;10.65;7.30;;;9.50;99.90;;;;;;5088587;28;20038;-69
2020/12/15 07:05:26;;;;;;;11.45;7.18;;;9.50;99.90;;;;;;5084548;28;20058;-69
2020/12/15 07:07:56;;;;;;;12.93;7.90;;;9.50;99.90;;;;;;5086148;28;20020;-68
2020/12/15 07:10:28;;;;;;;10.40;7.22;;;9.50;99.90;;;;;;5088132;28;20026;-68
2020/12/15 07:12:59;;;;;;;15.20;8.05;;;9.50;99.90;;;;;;5088864;28;20036;-69
2020/12/15 07:15:29;;;;;;;8.95;7.05;;;9.50;99.90;;;;;;5087873;28;20496;-68
2020/12/15 07:17:55;;;;;;;;;;;9.50;99.90;;;;;;5085681;28;20062;-68
2020/12/15 07:20:23;;;;;;;12.07;6.85;;;9.50;99.90;;;;;;5089883;28;19953;-69
2020/12/15 07:22:50;;;;;;;10.40;8.10;;;9.50;99.90;;;;;;5088422;28;20039;-69
2020/12/15 07:25:16;;;;;;;8.68;7.72;;;9.50;99.90;;;;;;5086984;28;20092;-69
2020/12/15 07:27:43;;;;;;;11.65;7.60;;;9.50;99.90;;;;;;5085128;28;20028;-69
2020/12/15 07:30:10;;;;;;;10.95;7.30;;;9.50;99.90;;;;;;5088171;28;20020;-69
2020/12/15 07:32:37;;;;;;;10.82;7.68;;;9.50;99.90;;;;;;5080933;28;20051;-69
2020/12/15 07:35:30;;;;;;;11.43;7.05;;;9.50;99.90;;;;;;5089878;28;20024;-69
2020/12/15 07:37:57;;;;;;;11.68;7.15;;;9.50;99.90;;;;;;5080937;28;20040;-68
2020/12/15 07:40:23;;;;;;;10.93;7.95;;;9.50;99.90;;;;;;5088941;28;20020;-69
2020/12/15 07:42:55;;;;;;;8.93;7.22;;;9.50;99.90;;;;;;5086362;28;20071;-68
2020/12/15 07:45:22;;;;;;;8.98;7.80;;;9.50;99.90;;;;;;5088101;28;20430;-68
2020/12/15 07:47:49;;;;;;;11.55;7.45;;;9.60;99.90;;;;;;5088800;28;20027;-68
2020/12/15 07:50:15;;;;;;;9.50;7.80;;;9.60;99.90;;;;;;5082569;28;20032;-68
2020/12/15 07:52:41;;;;;;;11.07;7.28;;;9.60;99.90;;;;;;5088642;28;20023;-68
2020/12/15 07:55:12;;;;;;;11.32;8.88;;;9.60;99.90;;;;;;5089437;28;20067;-68
2020/12/15 07:57:40;;;;;;;8.52;7.63;;;9.60;99.90;;;;;;5091673;28;20016;-68
2020/12/15 08:00:17;;;;;;;15.23;8.77;;;9.60;99.90;;;;;;5089242;28;20073;-68
2020/12/15 08:02:44;;;;;;;11.32;7.70;;;9.60;99.90;;;;;;5084768;28;20506;-68
2020/12/15 08:05:15;;;;;;;10.75;7.47;;;9.60;99.90;;;;;;5086633;28;20111;-68
2020/12/15 08:07:50;;;;;;;10.25;7.70;;;9.60;99.90;;;;;;5084934;28;20035;-68
2020/12/15 08:10:27;;;;;;;8.27;7.47;;;9.70;99.90;;;;;;5089105;28;20024;-68
2020/12/15 08:12:57;;;;;;;10.32;7.80;;;9.70;99.90;;;;;;5089435;28;20180;-68
2020/12/15 08:15:23;;;;;;;8.68;7.80;;;9.70;99.90;;;;;;5086809;28;20020;-68
2020/12/15 08:17:51;;;;;;;13.45;8.10;;;9.70;99.90;;;;;;5087894;28;20028;-67
2020/12/15 08:20:25;;;;;;;9.98;7.85;;;9.70;99.90;;;;;;5076676;28;20054;-67
2020/12/15 08:23:11;;;;;;;11.20;7.80;;;9.70;99.90;;;;;;5071427;28;20095;-68
2020/12/15 08:25:43;;;;;;;11.20;7.70;;;9.70;99.90;;;;;;5066666;28;20040;-68
2020/12/15 08:28:22;;;;;;;10.13;8.52;;;9.70;99.90;;;;;;5079711;28;20472;-67
2020/12/15 08:30:49;;;;;;;10.95;8.20;;;9.70;99.90;;;;;;5071412;28;20380;-67
2020/12/15 08:33:25;;;;;;;12.35;8.73;;;9.80;99.90;;;;;;5074327;28;20062;-67
2020/12/15 08:35:52;;;;;;;9.43;7.53;;;9.80;99.90;;;;;;5088367;28;20476;-67
2020/12/15 08:38:19;;;;;;;11.68;9.10;;;9.80;99.90;;;;;;5087200;28;20109;-67
2020/12/15 08:40:58;;;;;;;11.52;8.93;;;9.80;99.90;;;;;;5088283;28;20161;-67
2020/12/15 08:43:24;;;;;;;9.55;8.43;;;9.80;99.90;;;;;;5086965;28;20035;-65
2020/12/15 08:45:51;;;;;;;12.27;8.93;;;9.80;99.90;;;;;;5088136;28;20024;-67
2020/12/15 08:48:19;;;;;;;13.38;8.95;;;9.80;99.90;;;;;;5070873;28;20067;-66
2020/12/15 08:50:45;;;;;;;13.88;9.25;;;9.80;99.90;;;;;;5062842;28;20025;-67
2020/12/15 08:53:11;;;;;;;10.75;8.77;;;9.80;99.90;;;;;;5071173;28;20025;-66
2020/12/15 08:55:38;;;;;;;11.65;9.32;;;9.90;99.90;;;;;;5070369;28;20023;-67
2020/12/15 08:58:08;;;;;;;11.10;8.55;;;9.80;99.90;;;;;;5071440;28;20028;-68
2020/12/15 09:00:36;;;;;;;10.98;9.18;;;9.90;99.90;;;;;;5070831;28;20050;-68
2020/12/15 09:03:08;;;;;;;8.82;8.05;;;9.90;99.90;;;;;;5070315;28;20040;-67
2020/12/15 09:05:45;;;;;;;10.63;9.32;;;9.90;99.90;;;;;;5070892;28;20036;-68
2020/12/15 09:08:11;;;;;;;9.98;8.52;;;9.90;99.90;;;;;;5071108;28;20108;-69
2020/12/15 09:10:36;;;;;;;13.02;9.07;;;10.00;99.90;;;;;;5063498;28;20115;-69
2020/12/15 09:13:04;;;;;;;12.25;8.80;;;10.00;99.90;;;;;;5070629;28;20024;-67
2020/12/15 09:15:30;;;;;;;11.68;8.93;;;10.00;99.90;;;;;;5070719;28;20028;-67
2020/12/15 09:17:56;;;;;;;11.02;9.55;;;10.00;99.90;;;;;;5070636;28;20112;-69
2020/12/15 09:20:28;;;;;;;12.23;9.98;;;10.10;99.90;;;;;;5071000;28;20539;-67
2020/12/15 09:22:53;;;;;;;11.65;9.30;;;10.10;99.90;;;;;;5072090;28;20027;-67
2020/12/15 09:25:20;;;;;;;11.30;9.73;;;10.10;99.90;;;;;;5080329;28;20025;-67
2020/12/15 09:27:47;;;;;;;15.38;9.60;;;10.20;99.90;;;;;;5080658;28;20055;-67
2020/12/15 09:30:15;;;;;;;11.68;9.68;;;10.20;99.90;;;;;;5069908;28;20108;-68
2020/12/15 09:32:43;;;;;;;11.75;9.60;;;10.20;99.90;;;;;;5080547;28;20044;-68
2020/12/15 09:35:10;;;;;;;11.25;10.10;;;10.30;99.90;;;;;;5083636;28;20075;-68
2020/12/15 09:37:38;;;;;;;12.77;10.95;;;10.20;99.90;;;;;;5064720;28;20519;-68
2020/12/15 09:40:05;;;;;;;11.02;9.85;;;10.20;99.90;;;;;;5073915;28;20349;-68
2020/12/15 09:42:32;;;;;;;12.77;9.90;;;10.30;99.90;;;;;;5079446;28;20016;-68
2020/12/15 09:44:58;;;;;;;12.65;9.38;;;10.20;99.90;;;;;;5073923;28;20028;-68
2020/12/15 09:47:24;;;;;;;15.52;10.18;;;10.30;99.90;;;;;;5077155;28;20494;-68
2020/12/15 09:49:49;;;;;;;15.43;10.38;;;10.30;99.90;;;;;;5091667;28;20024;-68
2020/12/15 09:52:15;;;;;;;13.18;10.77;;;10.30;99.90;;;;;;5090641;28;20547;-68
2020/12/15 09:54:40;;;;;;;12.90;11.40;;;10.30;99.90;;;;;;5094042;28;20538;-68
2020/12/15 09:57:06;;;;;;;12.15;10.05;;;10.30;99.90;;;;;;5085230;28;20491;-68
2020/12/15 09:59:32;;;;;;;11.15;9.95;;;10.30;99.90;;;;;;5072863;28;20055;-68
2020/12/15 10:01:58;;;;;;;11.10;9.57;;;10.30;99.90;;;;;;5074375;28;20021;-69
2020/12/15 10:04:24;;;;;;;14.05;10.52;;;10.30;99.90;;;;;;5074158;28;20463;-69
2020/12/15 10:06:50;;;;;;;16.63;10.68;;;10.20;99.90;;;;;;5073376;28;20016;-67
2020/12/15 10:09:15;;;;;;;14.52;11.23;;;10.30;99.90;;;;;;5074114;28;20027;-67
2020/12/15 10:11:45;;;;;;;13.05;10.10;;;10.30;99.90;;;;;;5073757;28;20156;-67
2020/12/15 10:14:11;;;;;;;16.27;10.27;;;10.30;99.90;;;;;;5077038;28;20506;-67
2020/12/15 10:16:37;;;;;;;16.38;11.07;;;10.30;99.90;;;;;;5092529;28;20048;-67
2020/12/15 10:19:03;;;;;;;14.50;10.90;;;10.30;99.90;;;;;;5090540;28;20025;-67
2020/12/15 10:21:28;;;;;;;12.98;10.13;;;10.30;99.90;;;;;;5090582;28;20024;-67
2020/12/15 10:23:54;;;;;;;15.82;11.07;;;10.30;99.90;;;;;;5090674;28;20032;-68
2020/12/15 10:26:24;;;;;;;12.27;10.35;;;10.30;99.90;;;;;;5089667;28;20020;-67
2020/12/15 10:28:52;;;;;;;14.02;11.25;;;10.40;99.90;;;;;;5090920;28;20020;-68
2020/12/15 10:31:18;;;;;;;11.20;10.10;;;10.40;99.90;;;;;;5089224;28;20107;-68
2020/12/15 10:33:44;;;;;;;13.13;10.88;;;10.40;99.90;;;;;;5084922;28;20456;-66
2020/12/15 10:36:11;;;;;;;13.05;10.88;;;10.50;99.90;;;;;;5091086;28;20042;-68
2020/12/15 10:38:37;;;;;;;17.17;10.70;;;10.50;99.90;;;;;;5085107;28;20362;-66
2020/12/15 10:41:03;;;;;;;13.50;10.73;;;10.60;99.90;;;;;;5091062;28;20073;-68
2020/12/15 10:43:28;;;;;;;12.27;10.40;;;10.50;99.90;;;;;;5085431;28;20032;-68
2020/12/15 10:45:54;;;;;;;13.48;10.30;;;10.60;99.90;;;;;;5093043;28;20024;-68
2020/12/15 10:48:19;;;;;;;16.10;11.13;;;10.60;99.90;;;;;;5090260;28;20024;-69
2020/12/15 10:50:45;;;;;;;14.05;10.57;;;10.60;99.90;;;;;;5092336;28;20064;-68
2020/12/15 10:53:10;;;;;;;13.50;10.75;;;10.60;99.90;;;;;;5090503;28;20027;-68
2020/12/15 10:55:37;;;;;;;13.45;9.52;;;10.60;99.90;;;;;;5089282;28;20485;-67
2020/12/15 10:58:04;;;;;;;14.48;9.95;;;10.60;99.90;;;;;;5088645;28;20109;-67
2020/12/15 11:00:29;;;;;;;15.30;10.88;;;10.60;99.90;;;;;;5091285;28;20070;-66
2020/12/15 11:02:55;;;;;;;13.98;11.25;;;10.50;99.90;;;;;;5089730;28;20033;-69
2020/12/15 11:05:21;;;;;;;14.18;11.35;;;10.50;99.90;;;;;;5086542;28;20107;-69
2020/12/15 11:07:46;;;;;;;20.25;11.32;;;10.50;99.90;;;;;;5092018;28;20020;-68
2020/12/15 11:10:12;;;;;;;18.75;12.45;;;10.50;99.90;;;;;;5083502;28;20430;-67
2020/12/15 11:12:37;;;;;;;16.73;11.43;;;10.50;99.90;;;;;;5090459;28;20107;-67
2020/12/15 11:15:04;;;;;;;15.48;11.70;;;10.50;99.90;;;;;;5088428;28;20066;-68
2020/12/15 11:17:30;;;;;;;12.80;11.40;;;10.50;99.90;;;;;;5081311;28;20057;-67
2020/12/15 11:19:55;;;;;;;18.17;11.85;;;10.50;99.90;;;;;;5072980;28;20094;-69
2020/12/15 11:22:21;;;;;;;16.95;12.18;;;10.50;99.90;;;;;;5086528;28;21021;-68
2020/12/15 11:24:47;;;;;;;14.40;12.27;;;10.50;99.90;;;;;;5080701;28;20037;-67
2020/12/15 11:27:12;;;;;;;18.65;12.07;;;10.50;99.90;;;;;;5072721;28;20480;-68
2020/12/15 11:29:38;;;;;;;16.77;12.00;;;10.60;99.90;;;;;;5072275;28;20040;-68
2020/12/15 11:32:03;;;;;;;17.48;12.38;;;10.60;99.90;;;;;;5072527;28;20028;-67
2020/12/15 11:34:29;;;;;;;16.38;12.38;;;10.50;99.90;;;;;;5072227;28;20082;-68
2020/12/15 11:36:55;;;;;;;17.08;12.45;;;10.60;99.90;;;;;;5071856;28;20012;-68
2020/12/15 11:39:24;;;;;;;17.15;12.85;;;10.60;99.90;;;;;;5071975;28;20115;-68
2020/12/15 11:41:51;;;;;;;16.08;12.95;;;10.60;99.90;;;;;;5072442;28;20033;-68
2020/12/15 11:44:20;;;;;;;15.38;12.30;;;10.60;99.90;;;;;;5071563;28;20032;-68
2020/12/15 11:46:46;;;;;;;17.42;14.25;;;10.60;99.90;;;;;;5082815;28;20027;-68
2020/12/15 11:49:11;;;;;;;13.35;11.95;;;10.60;99.90;;;;;;5083287;28;20472;-67
2020/12/15 11:51:37;;;;;;;15.00;11.98;;;10.60;99.90;;;;;;5071197;28;20025;-67
2020/12/15 11:54:03;;;;;;;16.17;11.98;;;10.60;99.90;;;;;;5072067;28;20618;-67
2020/12/15 11:56:29;;;;;;;17.52;11.98;;;10.60;99.90;;;;;;5071632;28;20016;-67
2020/12/15 11:58:54;;;;;;;15.57;11.90;;;10.60;99.90;;;;;;5070692;28;20119;-68
2020/12/15 12:01:20;;;;;;;14.95;12.73;;;10.60;99.90;;;;;;5071329;28;20154;-68
2020/12/15 12:03:46;;;;;;;17.58;12.15;;;10.60;99.90;;;;;;5071502;28;20362;-68
2020/12/15 12:06:12;;;;;;;14.55;11.80;;;10.60;99.90;;;;;;5071294;28;20085;-68
2020/12/15 12:08:37;;;;;;;16.02;12.23;;;10.60;99.90;;;;;;5071270;28;21919;-68
2020/12/15 12:11:03;;;;;;;17.67;12.95;;;10.60;99.90;;;;;;5071497;28;20031;-68
2020/12/15 12:13:29;;;;;;;15.73;11.88;;;10.70;99.90;;;;;;5070625;28;20412;-68
2020/12/15 12:15:55;;;;;;;13.68;12.35;;;10.60;99.90;;;;;;5071562;28;20464;-68
2020/12/15 12:18:20;;;;;;;18.65;13.02;;;10.60;99.90;;;;;;5075710;28;20346;-68
2020/12/15 12:20:46;;;;;;;20.65;13.80;;;10.60;99.90;;;;;;5088105;28;20101;-68
2020/12/15 12:23:12;;;;;;;13.95;12.48;;;10.60;99.90;;;;;;5072192;28;20033;-68
2020/12/15 12:25:37;;;;;;;19.95;14.07;;;10.60;99.90;;;;;;5088478;28;20034;-68
2020/12/15 12:28:03;;;;;;;17.63;13.40;;;10.60;99.90;;;;;;5087462;28;20020;-68
2020/12/15 12:30:29;;;;;;;20.95;14.52;;;10.60;99.90;;;;;;5089765;28;20039;-68
2020/12/15 12:32:54;;;;;;;21.05;15.15;;;10.60;99.90;;;;;;5077980;28;20047;-68
2020/12/15 12:35:20;;;;;;;17.55;14.52;;;10.60;99.90;;;;;;5087829;28;20032;-68
2020/12/15 12:37:46;;;;;;;20.30;15.85;;;10.50;99.90;;;;;;5085419;28;20028;-67
2020/12/15 12:40:11;;;;;;;19.02;14.32;;;10.60;99.90;;;;;;5070547;28;20020;-67
2020/12/15 12:42:38;;;;;;;20.52;15.77;;;10.60;99.90;;;;;;5069539;28;20024;-67
2020/12/15 12:45:04;;;;;;;19.45;14.73;;;10.70;99.90;;;;;;5065339;28;20044;-68